createdAt,value
2022-09-03T00:00:12.685Z,19.02
2022-09-03T00:02:23.645Z,13.50
2022-09-03T00:04:34.900Z,14.75
2022-09-03T00:06:45.093Z,20.45
2022-09-03T00:09:00.230Z,16.40
2022-09-03T00:11:13.394Z,15.13
2022-09-03T00:13:24.791Z,20.58
2022-09-03T00:15:30.904Z,17.33
2022-09-03T00:17:39.533Z,18.15
2022-09-03T00:19:53.739Z,18.90
2022-09-03T00:22:01.623Z,15.88
2022-09-03T00:24:15.022Z,15.45
2022-09-03T00:26:25.893Z,16.02
2022-09-03T00:28:35.773Z,16.13
2022-09-03T00:30:41.957Z,20.42
2022-09-03T00:32:49.370Z,17.52
2022-09-03T00:34:59.639Z,15.85
2022-09-03T00:37:04.071Z,14.90
2022-09-03T00:39:11.753Z,16.15
2022-09-03T00:41:26.870Z,20.45
2022-09-03T00:43:46.585Z,18.80
2022-09-03T00:45:58.688Z,15.80
2022-09-03T00:48:13.355Z,18.45
2022-09-03T00:50:31.295Z,16.65
2022-09-03T00:52:51.156Z,17.25
2022-09-03T00:55:08.471Z,18.02
2022-09-03T00:57:25.968Z,16.00
2022-09-03T00:59:42.147Z,17.35
2022-09-03T01:01:53.121Z,18.92
2022-09-03T01:04:09.701Z,20.67
2022-09-03T01:06:20.777Z,19.98
2022-09-03T01:08:54.130Z,15.57
2022-09-03T01:11:20.124Z,16.92
2022-09-03T01:13:32.036Z,18.17
2022-09-03T01:15:47.338Z,14.45
2022-09-03T01:18:07.186Z,14.90
2022-09-03T01:20:35.213Z,14.88
2022-09-03T01:23:15.493Z,15.77
2022-09-03T01:25:38.722Z,14.57
2022-09-03T01:27:55.160Z,20.52
2022-09-03T01:30:05.715Z,17.88
2022-09-03T01:32:21.043Z,16.17
2022-09-03T01:34:41.280Z,16.65
2022-09-03T01:36:52.223Z,16.45
2022-09-03T01:39:00.958Z,15.18
2022-09-03T01:41:36.308Z,15.45
2022-09-03T01:43:51.893Z,13.23
2022-09-03T01:46:03.542Z,16.10
2022-09-03T01:48:23.186Z,18.60
2022-09-03T01:50:37.619Z,13.88
2022-09-03T01:52:48.065Z,17.92
2022-09-03T01:57:35.599Z,16.67
2022-09-03T01:59:47.478Z,15.25
2022-09-03T02:02:03.470Z,13.82
2022-09-03T02:04:18.653Z,15.02
2022-09-03T02:06:22.991Z,14.00
2022-09-03T02:08:28.311Z,16.95
2022-09-03T02:10:39.383Z,14.80
2022-09-03T02:12:49.668Z,14.27
2022-09-03T02:14:54.933Z,16.23
2022-09-03T02:17:03.338Z,15.50
2022-09-03T02:19:11.626Z,16.05
2022-09-03T02:21:20.437Z,18.67
2022-09-03T02:23:28.291Z,12.93
2022-09-03T02:25:38.350Z,14.98
2022-09-03T02:27:42.883Z,13.85
2022-09-03T02:29:48.263Z,15.85
2022-09-03T02:31:52.682Z,15.15
2022-09-03T02:34:00.323Z,18.77
2022-09-03T02:36:08.390Z,13.27
2022-09-03T02:38:14.587Z,16.05
2022-09-03T02:40:19.243Z,11.80
2022-09-03T02:42:23.842Z,14.77
2022-09-03T02:44:33.366Z,17.92
2022-09-03T02:46:41.127Z,15.00
2022-09-03T02:48:45.924Z,17.17
2022-09-03T02:50:52.243Z,15.52
2022-09-03T02:52:57.083Z,14.68
2022-09-03T02:55:01.412Z,13.65
2022-09-03T02:57:08.887Z,14.82
2022-09-03T02:59:13.284Z,18.75
2022-09-03T03:01:24.124Z,13.77
2022-09-03T03:03:29.003Z,13.07
2022-09-03T03:05:45.661Z,14.98
2022-09-03T03:07:51.486Z,14.50
2022-09-03T03:09:56.293Z,13.55
2022-09-03T03:12:00.921Z,11.32
2022-09-03T03:14:05.416Z,14.73
2022-09-03T03:16:09.949Z,11.25
2022-09-03T03:18:14.627Z,18.58
2022-09-03T03:20:18.982Z,14.18
2022-09-03T03:22:24.627Z,11.95
2022-09-03T03:24:30.530Z,11.45
2022-09-03T03:26:35.246Z,16.25
2022-09-03T03:28:42.476Z,15.18
2022-09-03T03:30:48.801Z,14.23
2022-09-03T03:32:55.717Z,13.95
2022-09-03T03:35:00.655Z,16.67
2022-09-03T03:37:05.905Z,16.65
2022-09-03T03:39:10.645Z,13.60
2022-09-03T03:41:20.007Z,15.30
2022-09-03T03:43:24.578Z,16.33
2022-09-03T03:45:28.971Z,16.08
2022-09-03T03:47:33.635Z,15.05
2022-09-03T03:49:38.014Z,15.35
2022-09-03T03:51:42.469Z,16.38
2022-09-03T03:53:47.093Z,13.77
2022-09-03T03:55:57.864Z,18.92
2022-09-03T03:58:03.718Z,15.45
2022-09-03T04:00:09.168Z,12.60
2022-09-03T04:02:19.837Z,15.38
2022-09-03T04:04:24.308Z,12.77
2022-09-03T04:06:28.944Z,14.45
2022-09-03T04:08:36.556Z,16.02
2022-09-03T04:10:41.137Z,16.05
2022-09-03T04:12:45.499Z,18.88
2022-09-03T04:14:51.587Z,14.60
2022-09-03T04:16:59.091Z,16.02
2022-09-03T04:19:03.916Z,18.75
2022-09-03T04:21:10.842Z,14.10
2022-09-03T04:23:15.214Z,14.48
2022-09-03T04:25:19.704Z,14.40
2022-09-03T04:27:24.030Z,12.85
2022-09-03T04:29:31.501Z,16.20
2022-09-03T04:32:00.409Z,16.40
2022-09-03T04:34:06.171Z,16.88
2022-09-03T04:36:12.403Z,15.75
2022-09-03T04:38:17.388Z,18.50
2022-09-03T04:40:22.259Z,16.70
2022-09-03T04:42:26.874Z,17.38
2022-09-03T04:44:31.742Z,14.88
2022-09-03T04:46:36.147Z,13.23
2022-09-03T04:48:42.339Z,19.27
2022-09-03T04:50:46.694Z,14.10
2022-09-03T04:52:51.275Z,21.05
2022-09-03T04:54:58.352Z,16.33
2022-09-03T04:57:02.659Z,15.30
2022-09-03T04:59:09.775Z,18.75
2022-09-03T05:01:18.080Z,15.57
2022-09-03T05:03:23.344Z,14.73
2022-09-03T05:05:29.464Z,13.38
2022-09-03T05:07:38.807Z,14.27
2022-09-03T05:09:43.634Z,16.70
2022-09-03T05:11:48.147Z,12.07
2022-09-03T05:13:54.048Z,12.75
2022-09-03T05:16:02.534Z,12.68
2022-09-03T05:18:06.894Z,11.15
2022-09-03T05:20:12.071Z,12.23
2022-09-03T05:22:21.422Z,13.40
2022-09-03T05:24:26.000Z,15.52
2022-09-03T05:26:32.035Z,13.20
2022-09-03T05:28:38.208Z,16.33
2022-09-03T05:30:42.867Z,15.57
2022-09-03T05:32:47.850Z,16.10
2022-09-03T05:34:52.288Z,11.20
2022-09-03T05:36:58.736Z,13.48
2022-09-03T05:39:05.108Z,16.08
2022-09-03T05:41:10.812Z,15.27
2022-09-03T05:43:15.134Z,15.85
2022-09-03T05:45:19.620Z,19.40
2022-09-03T05:47:24.130Z,13.82
2022-09-03T05:49:28.688Z,14.15
2022-09-03T05:51:34.558Z,13.40
2022-09-03T05:53:40.994Z,14.55
2022-09-03T05:55:57.260Z,15.82
2022-09-03T05:58:01.622Z,15.10
2022-09-03T06:00:06.889Z,18.40
2022-09-03T06:02:18.311Z,19.77
2022-09-03T06:04:24.276Z,22.92
2022-09-03T06:06:30.217Z,16.35
2022-09-03T06:08:34.843Z,18.88
2022-09-03T06:10:41.155Z,18.15
2022-09-03T06:12:49.907Z,20.58
2022-09-03T06:14:54.296Z,14.20
2022-09-03T06:17:00.663Z,15.25
2022-09-03T06:19:07.944Z,15.88
2022-09-03T06:21:12.463Z,18.02
2022-09-03T06:23:18.640Z,15.80
2022-09-03T06:25:23.717Z,23.85
2022-09-03T06:27:30.285Z,19.73
2022-09-03T06:29:37.194Z,20.27
2022-09-03T06:31:42.182Z,15.23
2022-09-03T06:33:47.780Z,13.40
2022-09-03T06:35:57.707Z,12.95
2022-09-03T06:38:03.142Z,22.50
2022-09-03T06:40:13.473Z,16.35
2022-09-03T06:42:18.554Z,16.77
2022-09-03T06:44:23.065Z,14.65
2022-09-03T06:46:29.133Z,12.00
2022-09-03T06:48:35.182Z,13.18
2022-09-03T06:50:39.542Z,16.13
2022-09-03T06:52:43.993Z,13.73
2022-09-03T06:54:48.643Z,17.85
2022-09-03T06:56:55.374Z,12.65
2022-09-03T06:59:02.537Z,18.08
2022-09-03T07:01:09.076Z,16.60
2022-09-03T07:03:15.121Z,14.93
2022-09-03T07:05:25.594Z,12.60
2022-09-03T07:07:30.100Z,13.43
2022-09-03T07:09:38.465Z,14.95
2022-09-03T07:11:48.118Z,16.65
2022-09-03T07:13:54.622Z,16.05
2022-09-03T07:16:02.850Z,15.73
2022-09-03T07:18:07.449Z,13.23
2022-09-03T07:20:15.126Z,14.38
2022-09-03T07:22:19.911Z,13.25
2022-09-03T07:24:24.477Z,13.93
2022-09-03T07:26:31.407Z,16.52
2022-09-03T07:28:37.467Z,15.20
2022-09-03T07:30:42.188Z,14.80
2022-09-03T07:32:46.807Z,16.08
2022-09-03T07:34:53.071Z,14.57
2022-09-03T07:36:59.409Z,20.80
2022-09-03T07:39:04.469Z,13.68
2022-09-03T07:41:10.552Z,15.02
2022-09-03T07:43:15.022Z,13.75
2022-09-03T07:45:19.680Z,12.48
2022-09-03T07:47:26.950Z,12.52
2022-09-03T07:49:31.642Z,11.25
2022-09-03T07:51:37.833Z,16.98
2022-09-03T07:53:43.527Z,12.52
2022-09-03T07:55:48.160Z,14.13
2022-09-03T07:57:57.353Z,16.08
2022-09-03T08:00:03.919Z,12.20
2022-09-03T08:02:16.202Z,16.02
2022-09-03T08:04:23.393Z,13.18
2022-09-03T08:06:29.844Z,13.57
2022-09-03T08:08:36.312Z,16.65
2022-09-03T08:10:42.955Z,13.60
2022-09-03T08:12:47.578Z,11.38
2022-09-03T08:14:52.155Z,11.27
2022-09-03T08:16:56.714Z,14.80
2022-09-03T08:19:04.561Z,8.32
2022-09-03T08:21:10.425Z,9.30
2022-09-03T08:23:16.501Z,14.10
2022-09-03T08:25:21.138Z,10.00
2022-09-03T08:27:27.964Z,10.52
2022-09-03T08:29:32.536Z,10.80
2022-09-03T08:31:38.092Z,10.18
2022-09-03T08:33:43.992Z,14.48
2022-09-03T08:35:55.463Z,9.77
2022-09-03T08:38:05.443Z,11.52
2022-09-03T08:40:12.404Z,8.43
2022-09-03T08:42:47.723Z,11.05
2022-09-03T08:44:56.416Z,11.10
2022-09-03T08:47:07.297Z,11.68
2022-09-03T08:49:15.554Z,9.50
2022-09-03T08:51:25.477Z,11.13
2022-09-03T08:55:45.026Z,9.05
2022-09-03T08:57:54.590Z,7.38
2022-09-03T09:00:00.150Z,7.70
2022-09-03T09:02:19.650Z,8.32
2022-09-03T09:04:35.224Z,7.80
2022-09-03T09:06:46.663Z,7.50
2022-09-03T09:09:04.431Z,8.15
2022-09-03T09:11:27.910Z,6.65
2022-09-03T09:13:41.646Z,8.32
2022-09-03T09:15:56.321Z,9.45
2022-09-03T09:18:14.275Z,5.95
2022-09-03T09:20:25.018Z,6.82
2022-09-03T09:22:33.582Z,5.63
2022-09-03T09:24:43.652Z,9.00
2022-09-03T09:26:48.330Z,6.25
2022-09-03T09:28:59.823Z,6.22
2022-09-03T09:31:09.560Z,7.35
2022-09-03T09:33:14.083Z,6.32
2022-09-03T09:35:20.340Z,6.72
2022-09-03T09:37:25.042Z,8.93
2022-09-03T09:39:32.159Z,8.38
2022-09-03T09:41:37.127Z,10.00
2022-09-03T09:43:42.229Z,8.30
2022-09-03T09:45:49.921Z,8.40
2022-09-03T09:47:57.920Z,8.52
2022-09-03T09:50:04.422Z,7.90
2022-09-03T09:52:12.319Z,7.68
2022-09-03T09:54:20.174Z,6.57
2022-09-03T09:56:26.204Z,9.07
2022-09-03T09:58:32.162Z,6.88
2022-09-03T10:00:37.894Z,7.97
2022-09-03T10:02:51.042Z,7.47
2022-09-03T10:04:56.719Z,7.13
2022-09-03T10:07:05.391Z,8.35
2022-09-03T10:09:12.200Z,9.45
2022-09-03T10:11:18.799Z,6.10
2022-09-03T10:13:28.267Z,6.57
2022-09-03T10:15:41.594Z,6.82
2022-09-03T10:17:54.604Z,6.88
2022-09-03T10:20:25.882Z,9.98
2022-09-03T10:22:31.619Z,5.50
2022-09-03T10:24:49.861Z,7.72
2022-09-03T10:26:54.520Z,7.47
2022-09-03T10:29:00.873Z,6.10
2022-09-03T10:31:26.762Z,8.55
2022-09-03T10:33:39.607Z,7.97
2022-09-03T10:35:47.586Z,6.22
2022-09-03T10:38:02.727Z,9.95
2022-09-03T10:40:21.140Z,7.43
2022-09-03T10:42:37.555Z,6.97
2022-09-03T10:44:54.611Z,7.80
2022-09-03T10:47:12.856Z,7.55
2022-09-03T10:49:40.175Z,7.25
2022-09-03T10:51:49.650Z,8.52
2022-09-03T10:54:12.897Z,9.95
2022-09-03T10:56:22.923Z,6.47
2022-09-03T11:00:55.072Z,7.55
2022-09-03T11:03:39.187Z,7.30
2022-09-03T11:05:54.855Z,7.88
2022-09-03T11:08:07.100Z,7.97
2022-09-03T11:10:17.416Z,12.23
2022-09-03T11:12:28.394Z,9.38
2022-09-03T11:14:38.284Z,9.93
2022-09-03T11:16:49.715Z,10.48
2022-09-03T11:18:57.533Z,8.40
2022-09-03T11:21:11.997Z,9.43
2022-09-03T11:23:20.444Z,8.80
2022-09-03T11:25:33.545Z,10.27
2022-09-03T11:27:59.200Z,11.43
2022-09-03T11:30:08.527Z,10.65
2022-09-03T11:32:20.322Z,7.95
2022-09-03T11:34:32.505Z,10.32
2022-09-03T11:36:42.626Z,9.65
2022-09-03T11:38:49.153Z,10.95
2022-09-03T11:41:05.777Z,12.68
2022-09-03T11:43:15.957Z,9.30
2022-09-03T11:45:40.911Z,11.30
2022-09-03T11:47:47.093Z,15.57
2022-09-03T11:49:53.186Z,8.82
2022-09-03T11:52:03.244Z,10.90
2022-09-03T11:54:26.350Z,11.35
2022-09-03T11:56:32.345Z,7.88
2022-09-03T11:58:39.523Z,11.45
2022-09-03T12:00:45.674Z,7.40
2022-09-03T12:02:58.622Z,7.57
2022-09-03T12:05:21.745Z,9.32
2022-09-03T12:07:41.230Z,9.63
2022-09-03T12:10:26.396Z,11.07
2022-09-03T12:12:54.017Z,12.23
2022-09-03T12:15:10.318Z,6.70
2022-09-03T12:17:22.038Z,13.02
2022-09-03T12:19:34.595Z,8.57
2022-09-03T12:21:42.660Z,8.43
2022-09-03T12:23:57.929Z,7.85
2022-09-03T12:26:07.552Z,10.10
2022-09-03T12:28:25.239Z,13.43
2022-09-03T12:30:31.170Z,10.07
2022-09-03T12:32:43.181Z,6.97
2022-09-03T12:34:47.465Z,6.30
2022-09-03T12:36:56.750Z,9.77
2022-09-03T12:42:18.072Z,17.20
2022-09-03T12:44:29.866Z,10.95
2022-09-03T12:46:44.484Z,8.00
2022-09-03T12:51:48.968Z,8.68
2022-09-03T12:53:58.595Z,10.23
2022-09-03T12:56:11.965Z,9.13
2022-09-03T12:58:40.619Z,7.68
2022-09-03T13:00:51.067Z,9.45
2022-09-03T13:03:04.548Z,8.32
2022-09-03T13:05:16.420Z,7.38
2022-09-03T13:07:30.164Z,5.55
2022-09-03T13:09:42.274Z,8.45
2022-09-03T13:11:53.732Z,5.65
2022-09-03T13:14:08.407Z,8.38
2022-09-03T13:17:09.503Z,10.32
2022-09-03T13:19:43.319Z,8.27
2022-09-03T13:22:07.624Z,9.52
2022-09-03T13:24:30.163Z,10.13
2022-09-03T13:26:44.469Z,10.35
2022-09-03T13:29:09.514Z,6.80
2022-09-03T13:31:27.675Z,5.10
2022-09-03T13:33:42.219Z,8.43
2022-09-03T13:35:51.221Z,6.85
2022-09-03T13:38:02.778Z,15.07
2022-09-03T13:40:17.301Z,8.40
2022-09-03T13:42:28.626Z,6.95
2022-09-03T13:44:43.603Z,6.07
2022-09-03T13:46:53.698Z,5.15
2022-09-03T13:49:20.298Z,7.22
2022-09-03T13:51:31.468Z,8.80
2022-09-03T13:53:45.947Z,10.07
2022-09-03T13:55:54.439Z,8.60
2022-09-03T13:58:04.861Z,7.20
2022-09-03T14:00:12.588Z,7.43
2022-09-03T14:02:27.826Z,5.53
2022-09-03T14:04:53.324Z,7.07
2022-09-03T14:07:03.651Z,6.85
2022-09-03T14:09:16.622Z,6.00
2022-09-03T14:11:29.152Z,5.88
2022-09-03T14:13:51.421Z,7.72
2022-09-03T14:16:06.279Z,10.75
2022-09-03T14:18:19.323Z,8.88
2022-09-03T14:20:27.053Z,12.48
2022-09-03T14:22:46.545Z,7.25
2022-09-03T14:24:56.831Z,9.57
2022-09-03T14:27:04.863Z,7.78
2022-09-03T14:29:17.938Z,9.48
2022-09-03T14:31:40.269Z,4.00
2022-09-03T14:34:02.188Z,8.38
2022-09-03T14:36:23.146Z,4.90
2022-09-03T14:39:03.054Z,6.22
2022-09-03T14:41:36.457Z,10.40
2022-09-03T14:44:07.452Z,9.35
2022-09-03T14:46:24.858Z,8.85
2022-09-03T14:49:02.205Z,8.63
2022-09-03T14:51:19.910Z,7.10
2022-09-03T14:54:13.460Z,10.68
2022-09-03T14:56:44.765Z,10.23
2022-09-03T14:59:10.088Z,11.05
2022-09-03T15:01:19.725Z,9.50
2022-09-03T15:04:29.405Z,9.00
2022-09-03T15:07:12.352Z,11.40
2022-09-03T15:09:45.297Z,9.80
2022-09-03T15:11:54.420Z,12.45
2022-09-03T15:14:12.134Z,12.00
2022-09-03T15:16:32.137Z,20.42
2022-09-03T15:20:53.822Z,58.60
2022-09-03T15:23:21.997Z,27.52
2022-09-03T15:25:40.424Z,21.92
2022-09-03T15:28:05.753Z,29.02
2022-09-03T15:30:12.612Z,27.50
2022-09-03T15:32:27.166Z,21.08
2022-09-03T15:34:48.268Z,9.43
2022-09-03T15:36:57.149Z,17.50
2022-09-03T15:39:04.895Z,7.60
2022-09-03T15:41:19.098Z,9.05
2022-09-03T15:43:27.811Z,9.43
2022-09-03T15:45:39.804Z,7.07
2022-09-03T15:47:54.831Z,8.68
2022-09-03T15:50:04.801Z,22.58
2022-09-03T15:52:30.593Z,11.75
2022-09-03T15:54:44.112Z,7.80
2022-09-03T15:56:56.803Z,13.10
2022-09-03T15:59:05.061Z,10.07
2022-09-03T16:01:20.270Z,7.53
2022-09-03T16:03:40.171Z,7.10
2022-09-03T16:05:51.034Z,6.97
2022-09-03T16:08:19.676Z,8.73
2022-09-03T16:10:34.442Z,7.10
2022-09-03T16:12:49.601Z,9.98
2022-09-03T16:15:00.064Z,9.52
2022-09-03T16:17:10.936Z,9.70
2022-09-03T16:19:20.893Z,11.00
2022-09-03T16:23:41.501Z,9.95
2022-09-03T16:25:51.894Z,6.10
2022-09-03T16:28:09.106Z,8.32
2022-09-03T16:30:30.970Z,5.47
2022-09-03T16:33:00.348Z,8.23
2022-09-03T16:35:18.620Z,8.95
2022-09-03T16:37:30.206Z,9.25
2022-09-03T16:39:47.303Z,11.57
2022-09-03T16:42:00.450Z,7.20
2022-09-03T16:44:16.131Z,9.52
2022-09-03T16:46:26.889Z,8.25
2022-09-03T16:48:39.051Z,5.32
2022-09-03T16:51:04.338Z,5.10
2022-09-03T16:53:15.875Z,6.10
2022-09-03T16:55:27.700Z,10.52
2022-09-03T16:57:44.977Z,7.85
2022-09-03T17:00:14.878Z,6.47
2022-09-03T17:02:51.682Z,6.95
2022-09-03T17:05:16.189Z,6.85
2022-09-03T17:07:49.465Z,6.53
2022-09-03T17:10:03.936Z,7.93
2022-09-03T17:12:20.478Z,12.35
2022-09-03T17:15:05.138Z,9.65
2022-09-03T17:17:18.365Z,8.80
2022-09-03T17:19:30.272Z,8.80
2022-09-03T17:21:46.231Z,8.95
2022-09-03T17:24:26.640Z,13.60
2022-09-03T17:26:46.324Z,7.93
2022-09-03T17:29:04.190Z,10.70
2022-09-03T17:31:17.418Z,6.38
2022-09-03T17:33:43.055Z,7.57
2022-09-03T17:35:59.306Z,8.65
2022-09-03T17:38:19.749Z,7.90
2022-09-03T17:40:39.257Z,12.90
2022-09-03T17:42:52.884Z,10.32
2022-09-03T17:45:10.269Z,9.40
2022-09-03T17:47:49.104Z,10.00
2022-09-03T17:49:58.222Z,7.90
2022-09-03T17:52:08.512Z,9.87
2022-09-03T17:54:22.816Z,10.93
2022-09-03T17:56:31.204Z,10.38
2022-09-03T17:58:42.816Z,9.93
2022-09-03T18:01:00.399Z,10.35
2022-09-03T18:03:14.583Z,10.70
2022-09-03T18:05:22.562Z,10.30
2022-09-03T18:07:32.303Z,13.80
2022-09-03T18:09:42.223Z,9.95
2022-09-03T18:11:51.317Z,7.18
2022-09-03T18:14:02.291Z,11.07
2022-09-03T18:16:13.575Z,13.88
2022-09-03T18:18:27.511Z,12.20
2022-09-03T18:21:21.401Z,9.98
2022-09-03T18:23:52.432Z,10.25
2022-09-03T18:26:18.573Z,10.38
2022-09-03T18:28:50.546Z,14.07
2022-09-03T18:31:12.942Z,14.07
2022-09-03T18:33:39.869Z,9.43
2022-09-03T18:36:03.005Z,9.10
2022-09-03T18:38:24.346Z,10.23
2022-09-03T18:40:55.564Z,15.55
2022-09-03T18:43:27.786Z,16.73
2022-09-03T18:48:52.700Z,9.13
2022-09-03T18:51:21.206Z,13.95
2022-09-03T18:53:54.398Z,12.95
2022-09-03T18:56:28.855Z,11.68
2022-09-03T18:59:00.927Z,13.35
2022-09-03T19:01:30.021Z,11.73
2022-09-03T19:04:08.409Z,10.52
2022-09-03T19:06:44.994Z,13.15
2022-09-03T19:09:18.956Z,10.63
2022-09-03T19:11:52.350Z,13.18
2022-09-03T19:14:22.393Z,14.48
2022-09-03T19:16:59.783Z,12.50
2022-09-03T19:19:53.593Z,10.02
2022-09-03T19:22:24.830Z,8.90
2022-09-03T19:24:49.895Z,12.60
2022-09-03T19:27:51.858Z,13.55
2022-09-03T19:30:16.621Z,10.45
2022-09-03T19:32:48.000Z,13.70
2022-09-03T19:35:25.862Z,11.60
2022-09-03T19:37:54.708Z,10.68
2022-09-03T19:40:57.924Z,15.47
2022-09-03T19:43:31.633Z,14.00
2022-09-03T19:46:05.730Z,16.40
2022-09-03T19:48:37.154Z,13.93
2022-09-03T19:53:29.967Z,12.35
2022-09-03T19:55:55.222Z,15.98
2022-09-03T19:58:39.530Z,11.98
2022-09-03T20:01:02.226Z,14.23
2022-09-03T20:03:25.710Z,13.43
2022-09-03T20:05:47.719Z,15.68
2022-09-03T20:08:14.886Z,14.07
2022-09-03T20:10:25.082Z,12.70
2022-09-03T20:12:36.167Z,15.75
2022-09-03T20:14:40.795Z,11.45
2022-09-03T20:17:07.509Z,15.38
2022-09-03T20:19:21.913Z,12.80
2022-09-03T20:21:32.951Z,15.82
2022-09-03T20:23:45.450Z,17.23
2022-09-03T20:26:10.728Z,17.38
2022-09-03T20:28:28.734Z,13.07
2022-09-03T20:30:38.771Z,16.13
2022-09-03T20:33:19.110Z,12.68
2022-09-03T20:35:38.342Z,13.43
2022-09-03T20:37:50.636Z,12.05
2022-09-03T20:40:10.029Z,14.80
2022-09-03T20:42:38.800Z,10.70
2022-09-03T20:44:55.414Z,13.57
2022-09-03T20:47:16.148Z,14.32
2022-09-03T20:49:31.561Z,15.30
2022-09-03T20:51:41.331Z,15.32
2022-09-03T20:56:07.739Z,16.95
2022-09-03T20:58:22.379Z,12.27
2022-09-03T21:00:27.355Z,10.20
2022-09-03T21:02:52.612Z,10.25
2022-09-03T21:05:06.457Z,12.82
2022-09-03T21:07:21.033Z,21.48
2022-09-03T21:09:35.166Z,12.55
2022-09-03T21:11:45.516Z,12.23
2022-09-03T21:13:57.077Z,9.68
2022-09-03T21:16:20.299Z,11.73
2022-09-03T21:18:34.286Z,9.02
2022-09-03T21:20:47.380Z,12.13
2022-09-03T21:23:04.422Z,8.90
2022-09-03T21:25:14.349Z,12.25
2022-09-03T21:29:28.472Z,6.85
2022-09-03T21:31:39.317Z,8.85
2022-09-03T21:33:50.315Z,10.27
2022-09-03T21:36:01.703Z,10.80
2022-09-03T21:38:09.313Z,9.13
2022-09-03T21:40:19.910Z,10.77
2022-09-03T21:42:42.365Z,9.00
2022-09-03T21:45:40.737Z,10.18
2022-09-03T21:47:53.880Z,8.90
2022-09-03T21:50:13.126Z,9.82
2022-09-03T21:52:25.907Z,12.40
2022-09-03T21:54:36.825Z,11.82
2022-09-03T21:56:57.666Z,11.38
2022-09-03T21:59:13.233Z,13.90
2022-09-03T22:01:23.738Z,11.40
2022-09-03T22:03:28.196Z,11.07
2022-09-03T22:05:42.126Z,10.55
2022-09-03T22:08:05.612Z,10.77
2022-09-03T22:10:20.434Z,10.68
2022-09-03T22:12:32.724Z,9.93
2022-09-03T22:14:44.795Z,13.60
2022-09-03T22:17:05.537Z,9.07
2022-09-03T22:19:10.310Z,14.45
2022-09-03T22:21:21.888Z,9.63
2022-09-03T22:23:43.825Z,9.85
2022-09-03T22:25:59.083Z,9.48
2022-09-03T22:28:11.575Z,11.90
2022-09-03T22:30:21.376Z,9.77
2022-09-03T22:32:41.569Z,11.40
2022-09-03T22:35:02.986Z,8.65
2022-09-03T22:37:14.615Z,8.82
2022-09-03T22:39:28.556Z,9.93
2022-09-03T22:42:09.968Z,10.43
2022-09-03T22:44:24.005Z,9.85
2022-09-03T22:46:34.898Z,9.52
2022-09-03T22:49:07.104Z,10.85
2022-09-03T22:51:12.843Z,10.15
2022-09-03T22:53:28.783Z,9.73
2022-09-03T22:55:35.346Z,11.70
2022-09-03T22:57:47.804Z,7.35
2022-09-03T23:00:01.245Z,8.20
2022-09-03T23:02:14.485Z,8.35
2022-09-03T23:04:26.950Z,9.18
2022-09-03T23:06:33.962Z,7.85
2022-09-03T23:08:42.484Z,8.40
2022-09-03T23:10:59.697Z,13.23
2022-09-03T23:13:10.502Z,9.48
2022-09-03T23:15:20.346Z,10.38
2022-09-03T23:19:40.766Z,8.27
2022-09-03T23:21:52.323Z,10.10
2022-09-03T23:24:03.174Z,12.27
2022-09-03T23:26:23.539Z,9.05
2022-09-03T23:28:33.401Z,7.55
2022-09-03T23:30:38.048Z,9.43
2022-09-03T23:32:44.811Z,8.80
2022-09-03T23:34:49.414Z,9.43
2022-09-03T23:37:32.919Z,11.10
2022-09-03T23:39:52.487Z,7.95
2022-09-03T23:42:07.697Z,8.80
2022-09-03T23:44:36.538Z,7.88
2022-09-03T23:46:51.056Z,8.00
2022-09-03T23:49:13.396Z,8.85
2022-09-03T23:51:28.336Z,11.35
2022-09-03T23:53:45.017Z,8.75
2022-09-03T23:56:02.852Z,11.00
2022-09-03T23:58:12.840Z,11.57
